^^
Datos históricos de la estación: Murcia-Puente Tocinos
Diario Informe para Diciembre 17, 2019 Unidades:  Ingés    Métrico   Ambas
Diario Semanal Mensual Anual
  Máxima: Mínima: Promedio:
Temperatura: 61.9 °F 51.1 °F 55.9 °F
Punto de rocio: 50.2 °F 44.8 °F 48.4 °F
Humedad: 88.9% 59.9% 77%
Velocidad viento: 6.4mph 0mph 3.7mph
Racha viento: 14.5mph - -
Viento- - SSO
Presión: 29.9 in 29.5 in -
Precipitación: 0 in    
 
 
Tabla de datos para Diciembre 17, 2019
Hora Temperatura Punto de rocio Presión Viento Velocidad viento Racha viento Humedad Intensidad lluvia(por hora) Nubes
00:04 54.3 °F 50.2 °F 29.6 in OSO 1.9 mph 5 mph 86% 0 in
00:09 54.3 °F 50.2 °F 29.6 in SSO 1.4 mph 5 mph 86% 0 in
00:14 54.3 °F 50 °F 29.6 in SSO 1.9 mph 5 mph 85.4% 0 in
00:19 54.1 °F 49.6 °F 29.6 in OSO 2.4 mph 5.2 mph 85% 0 in
00:24 54.1 °F 49.5 °F 29.6 in Oeste 2.6 mph 6.2 mph 84.1% 0 in
00:29 54.1 °F 49.3 °F 29.5 in OSO 2.9 mph 6 mph 83.9% 0 in
00:34 54 °F 48.9 °F 29.5 in OSO 3 mph 6 mph 83% 0 in
00:39 54 °F 48.9 °F 29.5 in OSO 3.1 mph 5.8 mph 83% 0 in
00:44 54 °F 48.9 °F 29.5 in SO 3 mph 6 mph 83% 0 in
00:49 54 °F 48.9 °F 29.5 in SO 2.9 mph 5.8 mph 83% 0 in
00:54 53.8 °F 48.7 °F 29.5 in SO 3.2 mph 6.2 mph 83% 0 in
00:59 53.8 °F 48.7 °F 29.5 in SO 3.6 mph 7.4 mph 83% 0 in
01:04 53.6 °F 48.6 °F 29.5 in OSO 3.8 mph 7 mph 83% 0 in
01:09 53.6 °F 48.6 °F 29.5 in SO 4 mph 6.2 mph 83% 0 in
01:14 53.4 °F 48.6 °F 29.5 in SSO 4 mph 8.1 mph 83% 0 in
01:17 53.4 °F 48.4 °F 29.5 in SSO 4 mph 9.7 mph 83% 0 in
01:24 53.4 °F 48.4 °F 29.5 in SSO 5.9 mph 8.1 mph 83% 0 in
01:29 53.6 °F 48.6 °F 29.5 in SSO 5.9 mph 9 mph 83% 0 in
01:34 53.8 °F 48.7 °F 29.5 in SSO 5 mph 8.1 mph 83% 0 in
01:39 53.6 °F 48.6 °F 29.5 in SSO 4 mph 8.1 mph 83% 0 in
01:44 53.4 °F 48.4 °F 29.5 in SSO 4.3 mph 8 mph 83% 0 in
01:49 53.2 °F 48.2 °F 29.5 in SSO 4.7 mph 7 mph 83% 0 in
01:54 53.2 °F 48.2 °F 29.5 in SO 4.5 mph 7 mph 83% 0 in
01:59 53.1 °F 48.2 °F 29.5 in SO 4.3 mph 6 mph 83.5% 0 in
02:04 53.1 °F 48.4 °F 29.5 in SO 4 mph 6 mph 84% 0 in
02:09 52.9 °F 48.2 °F 29.5 in SO 3.6 mph 5.9 mph 84% 0 in
02:14 52.9 °F 48.2 °F 29.5 in SSO 3.6 mph 6 mph 84% 0 in
02:19 52.9 °F 48.2 °F 29.5 in SSO 3.6 mph 7.6 mph 84% 0 in
02:24 52.7 °F 48 °F 29.5 in SSO 3.8 mph 8.1 mph 84% 0 in
02:29 52.5 °F 48 °F 29.5 in SSO 4 mph 8.5 mph 84.5% 0 in
02:34 52.3 °F 48 °F 29.5 in SSO 4.3 mph 9 mph 85% 0 in
02:39 52.3 °F 48 °F 29.5 in SSO 4.7 mph 7 mph 85% 0 in
02:44 52.2 °F 47.8 °F 29.5 in SSO 4.5 mph 8.1 mph 85% 0 in
02:49 52.2 °F 47.8 °F 29.5 in SO 4.3 mph 9.2 mph 85% 0 in
02:54 52.2 °F 47.8 °F 29.5 in SO 4.5 mph 10 mph 85% 0 in
02:59 52.3 °F 48 °F 29.5 in SO 4.7 mph 10 mph 85% 0 in
03:04 52.3 °F 48 °F 29.5 in OSO 4.5 mph 7 mph 85% 0 in
03:09 52.3 °F 48 °F 29.5 in OSO 4.3 mph 7 mph 85% 0 in
03:14 52.3 °F 48 °F 29.5 in OSO 4.3 mph 7.4 mph 85% 0 in
03:19 52.3 °F 48 °F 29.5 in OSO 4.3 mph 7 mph 85% 0 in
03:24 52.3 °F 48 °F 29.5 in OSO 4 mph 6.2 mph 85% 0 in
03:29 52.3 °F 48 °F 29.5 in Oeste 3.6 mph 6.9 mph 85% 0 in
03:34 52.3 °F 48 °F 29.5 in Oeste 3.6 mph 7 mph 85% 0 in
03:39 52.2 °F 47.8 °F 29.5 in OSO 3.6 mph 5.2 mph 85% 0 in
03:44 52.2 °F 47.8 °F 29.5 in OSO 3.4 mph 6.4 mph 85% 0 in
03:49 52.2 °F 47.8 °F 29.5 in SO 3.1 mph 7 mph 85% 0 in
03:54 52 °F 47.8 °F 29.5 in SSO 3 mph 7 mph 85.7% 0 in
03:59 52.2 °F 48 °F 29.5 in SO 2.9 mph 5 mph 86% 0 in
04:04 52.2 °F 47.8 °F 29.5 in OSO 2.9 mph 5 mph 85% 0 in
04:09 52.2 °F 47.8 °F 29.5 in OSO 2.9 mph 5.9 mph 85% 0 in
04:14 52.2 °F 47.8 °F 29.5 in SSO 3 mph 6 mph 85% 0 in
04:19 52.2 °F 47.8 °F 29.5 in SSO 3.1 mph 9.2 mph 85% 0 in
04:24 52.3 °F 48 °F 29.5 in SO 3.7 mph 9 mph 85% 0 in
04:29 52.5 °F 48 °F 29.5 in SSO 4.3 mph 9.2 mph 85% 0 in
04:34 52.5 °F 47.8 °F 29.5 in SSO 4.3 mph 9 mph 84% 0 in
04:39 52.5 °F 47.8 °F 29.5 in SSO 4.3 mph 6 mph 84% 0 in
04:44 52.5 °F 47.8 °F 29.5 in SSO 3.7 mph 6 mph 84% 0 in
04:49 52.5 °F 47.8 °F 29.5 in Sur 3.1 mph 5 mph 84% 0 in
04:54 52.5 °F 47.8 °F 29.5 in SE 3.1 mph 6.9 mph 84% 0 in
04:59 52.2 °F 47.7 °F 29.5 in SE 3.1 mph 7 mph 84.1% 0 in
05:04 51.8 °F 47.5 °F 29.5 in SSE 3.6 mph 6 mph 85% 0 in
05:09 51.4 °F 47.5 °F 29.5 in Sur 4 mph 6.2 mph 86% 0 in
05:14 51.4 °F 47.7 °F 29.5 in SSO 3.8 mph 6 mph 86.8% 0 in
05:19 51.3 °F 47.5 °F 29.5 in SSO 3.6 mph 5 mph 87% 0 in
05:24 51.3 °F 47.5 °F 29.5 in Sur 3 mph 5.2 mph 87% 0 in
05:29 51.3 °F 47.5 °F 29.5 in SSE 2.4 mph 5 mph 87% 0 in
05:34 51.3 °F 47.8 °F 29.5 in SSE 2.7 mph 5 mph 88% 0 in
05:39 51.3 °F 47.8 °F 29.5 in SSO 2.9 mph 5 mph 88% 0 in
05:44 51.3 °F 47.8 °F 29.5 in SO 2.6 mph 5.2 mph 88% 0 in
05:49 51.4 °F 48 °F 29.5 in SO 2.4 mph 5.2 mph 88% 0 in
05:54 51.6 °F 48 °F 29.5 in Sur 2.7 mph 5 mph 87.3% 0 in
05:59 51.8 °F 48 °F 29.5 in SSE 3.1 mph 5 mph 87% 0 in
06:04 51.8 °F 47.8 °F 29.5 in SE 2.2 mph 5 mph 86.2% 0 in
06:09 51.8 °F 47.7 °F 29.5 in SE 1.4 mph 4.6 mph 86% 0 in
06:14 51.6 °F 47.7 °F 29.5 in SE 1.6 mph 5 mph 86% 0 in
06:19 51.6 °F 47.8 °F 29.5 in SE 1.8 mph 3.5 mph 86.9% 0 in
06:24 51.6 °F 47.8 °F 29.5 in SE 1.6 mph 3.5 mph 87% 0 in
06:29 51.6 °F 47.8 °F 29.5 in SE 1.4 mph 2.4 mph 87% 0 in
06:34 51.6 °F 47.8 °F 29.5 in SE 0.7 mph 2.3 mph 87% 0 in
06:39 51.4 °F 47.7 °F 29.5 in Calm   3.6 mph 87% 0 in
06:44 51.4 °F 47.8 °F 29.5 in SE 0.9 mph 4.6 mph 87% 0 in
06:49 51.4 °F 47.8 °F 29.5 in SE 1.8 mph 5 mph 87% 0 in
06:54 51.4 °F 47.7 °F 29.5 in SE 2.1 mph 5 mph 87% 0 in
06:59 51.3 °F 47.7 °F 29.5 in ESE 2.4 mph 5.9 mph 87% 0 in
07:04 51.3 °F 47.8 °F 29.5 in SE 2.7 mph 6 mph 87.9% 0 in
07:09 51.4 °F 48 °F 29.6 in SE 3.1 mph 6 mph 88% 0 in
07:14 51.4 °F 48 °F 29.6 in SE 2.5 mph 5 mph 88% 0 in
07:19 51.6 °F 48.2 °F 29.6 in SO 2 mph 5.2 mph 87.9% 0 in
07:24 51.4 °F 47.8 °F 29.6 in Oeste 2.2 mph 5 mph 87% 0 in
07:29 51.4 °F 47.8 °F 29.6 in Oeste 2.4 mph 5 mph 87.5% 0 in
07:34 51.4 °F 48 °F 29.6 in Oeste 2.4 mph 5 mph 88% 0 in
07:39 51.6 °F 48 °F 29.6 in Oeste 2.4 mph 5 mph 87.3% 0 in
07:44 51.6 °F 47.8 °F 29.6 in Oeste 2.2 mph 5 mph 87% 0 in
07:49 51.4 °F 47.8 °F 29.6 in Oeste 2 mph 4 mph 87% 0 in
07:54 51.4 °F 47.7 °F 29.6 in Oeste 1.9 mph 4 mph 87% 0 in
07:59 51.3 °F 47.5 °F 29.6 in Oeste 1.8 mph 5.2 mph 87% 0 in
08:04 51.3 °F 47.5 °F 29.6 in Oeste 2.4 mph 5 mph 87% 0 in
08:09 51.1 °F 47.7 °F 29.6 in Oeste 2.9 mph 4.7 mph 88% 0 in
08:14 51.1 °F 47.7 °F 29.6 in OSO 2.4 mph 5 mph 88% 0 in
08:19 51.3 °F 47.7 °F 29.6 in SSO 2 mph 5.2 mph 88% 0 in
08:24 51.3 °F 47.8 °F 29.6 in SSO 2.5 mph 5 mph 88% 0 in
08:29 51.4 °F 48 °F 29.6 in OSO 2.9 mph 5 mph 88% 0 in
08:34 51.4 °F 48 °F 29.6 in OSO 2.5 mph 4 mph 88% 0 in
08:39 51.4 °F 48 °F 29.6 in SO 2 mph 5.4 mph 88% 0 in
08:44 51.6 °F 48.2 °F 29.6 in SSO 2.2 mph 7.4 mph 88% 0 in
08:49 51.4 °F 48 °F 29.6 in SSO 2.4 mph 7 mph 88% 0 in
08:54 51.4 °F 48 °F 29.6 in SSO 3.2 mph 7 mph 88% 0 in
08:59 51.4 °F 48 °F 29.6 in Sur 4 mph 6 mph 88% 0 in
09:04 51.6 °F 48.2 °F 29.6 in SSE 3.4 mph 5.2 mph 88% 0 in
09:09 51.4 °F 48.2 °F 29.6 in SE 2.9 mph 5.8 mph 88% 0 in
09:14 51.4 °F 48 °F 29.6 in ESE 3 mph 6 mph 88% 0 in
09:19 51.4 °F 48 °F 29.6 in ESE 3.1 mph 5 mph 88% 0 in
09:24 51.4 °F 48 °F 29.6 in SE 2.7 mph 5.2 mph 88% 0 in
09:29 51.3 °F 47.8 °F 29.6 in SSE 2.4 mph 5.8 mph 88% 0 in
09:34 51.3 °F 48 °F 29.6 in Sur 3.2 mph 6 mph 88.5% 0 in
09:39 51.3 °F 48.2 °F 29.6 in Sur 4 mph 6 mph 88.9% 0 in
09:44 51.4 °F 48 °F 29.6 in Sur 4 mph 6 mph 88% 0 in
09:49 51.6 °F 48.2 °F 29.6 in Sur 4 mph 6 mph 88% 0 in
09:54 51.6 °F 48.2 °F 29.6 in SSO 4 mph 8.1 mph 88% 0 in
09:59 51.8 °F 48 °F 29.6 in SSO 4 mph 8 mph 87% 0 in
10:04 52 °F 48.2 °F 29.6 in SSO 4.2 mph 7 mph 86.9% 0 in
10:09 52 °F 47.8 °F 29.6 in Sur 4.3 mph 6 mph 86% 0 in
10:14 52.2 °F 48 °F 29.6 in SSO 4 mph 6.9 mph 86% 0 in
10:19 52.3 °F 48.2 °F 29.6 in SSO 3.6 mph 7.4 mph 85.9% 0 in
10:24 52.7 °F 48.2 °F 29.6 in SO 4.2 mph 8.1 mph 84.3% 0 in
10:29 53.1 °F 48.2 °F 29.6 in SSO 4.7 mph 8 mph 83.9% 0 in
10:34 53.2 °F 48 °F 29.6 in SO 4.3 mph 6.9 mph 82.5% 0 in
10:39 53.4 °F 47.8 °F 29.6 in SO 4 mph 7 mph 81.5% 0 in
10:44 53.8 °F 47.8 °F 29.6 in SSO 3.8 mph 7 mph 80.8% 0 in
10:49 54 °F 48 °F 29.6 in SO 3.6 mph 5 mph 80% 0 in
10:54 54.5 °F 48.4 °F 29.6 in SO 2.7 mph 3.5 mph 79.7% 0 in
10:59 55 °F 48.2 °F 29.6 in SSO 2 mph 5.8 mph 77.7% 0 in
11:04 55.2 °F 48.2 °F 29.6 in SSO 2.5 mph 6.2 mph 77% 0 in
11:09 55.4 °F 48 °F 29.7 in SSO 2.9 mph 6 mph 76.2% 0 in
11:14 55.4 °F 48 °F 29.7 in SO 3.3 mph 6 mph 76.2% 0 in
11:19 55.6 °F 48 °F 29.7 in SSO 3.6 mph 5.8 mph 76% 0 in
11:24 55.8 °F 48.4 °F 29.7 in Sur 3.6 mph 6 mph 76% 0 in
11:29 56.1 °F 48.2 °F 29.7 in SSE 3.6 mph 5.9 mph 74.7% 0 in
11:34 56.3 °F 48.2 °F 29.7 in Sur 3.6 mph 6.4 mph 74.2% 0 in
11:39 56.7 °F 48.6 °F 29.7 in SSE 3.6 mph 8.1 mph 74% 0 in
11:44 56.8 °F 48.6 °F 29.7 in SSO 3.9 mph 8.1 mph 73.9% 0 in
11:49 56.8 °F 48.4 °F 29.7 in SSO 4.3 mph 8 mph 73.3% 0 in
11:54 57 °F 48.4 °F 29.7 in Sur 4 mph 6.9 mph 73% 0 in
11:59 57 °F 48.6 °F 29.7 in SSO 3.6 mph 7 mph 73% 0 in
12:04 57.2 °F 48.6 °F 29.7 in SSO 3.6 mph 6 mph 73% 0 in
12:09 57.4 °F 48.7 °F 29.7 in SSO 3.6 mph 6.9 mph 73% 0 in
12:14 57.4 °F 48.4 °F 29.7 in OSO 3.6 mph 7 mph 72% 0 in
12:19 57.4 °F 48.4 °F 29.7 in OSO 3.6 mph 7 mph 72% 0 in
12:24 57.6 °F 48.6 °F 29.7 in Sur 3.4 mph 6 mph 72% 0 in
12:29 57.6 °F 48.6 °F 29.7 in SSO 3.1 mph 7.4 mph 71.9% 0 in
12:34 57.7 °F 48.7 °F 29.7 in SSO 3.5 mph 7 mph 72% 0 in
12:39 58.3 °F 48.9 °F 29.7 in SSO 4 mph 6.4 mph 71.3% 0 in
12:44 58.5 °F 48.7 °F 29.7 in OSO 3.8 mph 7 mph 70.1% 0 in
12:49 58.5 °F 48.7 °F 29.7 in SO 3.6 mph 7 mph 70% 0 in
12:54 58.6 °F 48.9 °F 29.7 in SO 3.4 mph 6.2 mph 69.9% 0 in
12:59 59 °F 48.9 °F 29.7 in SSO 3.1 mph 6.2 mph 69% 0 in
13:04 59.2 °F 49.1 °F 29.7 in SO 3.6 mph 7.4 mph 69% 0 in
13:09 59.4 °F 48.7 °F 29.7 in SO 4 mph 7 mph 68% 0 in
13:14 59.4 °F 48.9 °F 29.7 in SO 4 mph 7 mph 68.1% 0 in
13:19 59.5 °F 48.9 °F 29.7 in Oeste 4 mph 7 mph 68% 0 in
13:24 59.5 °F 48.9 °F 29.7 in Oeste 3.8 mph 8.1 mph 67.5% 0 in
13:29 59.9 °F 48.7 °F 29.7 in OSO 3.6 mph 10.4 mph 66.8% 0 in
13:34 60.1 °F 48.7 °F 29.7 in Oeste 3.8 mph 10 mph 66% 0 in
13:39 60.3 °F 48.7 °F 29.7 in ONO 4 mph 7 mph 66% 0 in
13:44 60.3 °F 48.7 °F 29.7 in OSO 3.8 mph 8.1 mph 65.3% 0 in
13:49 60.4 °F 48.2 °F 29.7 in OSO 3.6 mph 8 mph 64% 0 in
13:54 60.6 °F 48.2 °F 29.7 in SO 3.9 mph 7.4 mph 63.6% 0 in
13:59 60.8 °F 48 °F 29.7 in SSO 4.3 mph 7 mph 63% 0 in
14:04 61.2 °F 48.4 °F 29.7 in SO 4.2 mph 6 mph 62.4% 0 in
14:09 61.3 °F 48.2 °F 29.7 in ONO 4 mph 6.4 mph 61.7% 0 in
14:14 61.3 °F 48.2 °F 29.7 in Oeste 3.6 mph 7 mph 62% 0 in
14:19 61.3 °F 48.2 °F 29.7 in OSO 3.1 mph 7 mph 62% 0 in
14:24 61.3 °F 48.2 °F 29.7 in OSO 3.1 mph 6 mph 62% 0 in
14:29 61.3 °F 48.2 °F 29.6 in SSO 3.1 mph 6.2 mph 62% 0 in
14:34 61.3 °F 48.2 °F 29.6 in SSO 3.5 mph 6.2 mph 62% 0 in
14:39 61.2 °F 48 °F 29.7 in SO 4 mph 6 mph 62% 0 in
14:44 61.2 °F 48.2 °F 29.7 in SSO 4 mph 6 mph 62.2% 0 in
14:49 61.3 °F 48.2 °F 29.7 in SSO 4 mph 6.9 mph 62% 0 in
14:54 61.3 °F 48.2 °F 29.7 in SSO 3.6 mph 7 mph 62% 0 in
14:59 61.5 °F 48.4 °F 29.7 in SSO 3.1 mph 6.2 mph 62% 0 in
15:04 61.7 °F 48.6 °F 29.7 in SSE 3.4 mph 6.9 mph 62% 0 in
15:09 61.9 °F 48.7 °F 29.7 in SE 3.6 mph 8.1 mph 62% 0 in
15:14 61.9 °F 48.7 °F 29.7 in Sur 4 mph 8.1 mph 62.1% 0 in
15:19 61.9 °F 48.6 °F 29.7 in Sur 4.3 mph 9.2 mph 62% 0 in
15:24 61.5 °F 48.7 °F 29.7 in Sur 5.1 mph 9.2 mph 62.9% 0 in
15:29 61.5 °F 48.7 °F 29.7 in SSO 5.9 mph 9 mph 63% 0 in
15:34 61.5 °F 48.7 °F 29.7 in SSO 5.7 mph 9.2 mph 63% 0 in
15:39 61.5 °F 49.1 °F 29.7 in Sur 5.4 mph 9 mph 63.6% 0 in
15:44 61.5 °F 49.3 °F 29.7 in Sur 5.1 mph 8 mph 64% 0 in
15:49 61.3 °F 49.1 °F 29.7 in SSO 4.7 mph 7 mph 64% 0 in
15:54 61.3 °F 49.1 °F 29.7 in Sur 4.7 mph 7 mph 64% 0 in
15:59 61.2 °F 48.9 °F 29.7 in SSO 4.7 mph 6 mph 64% 0 in
16:04 61.2 °F 48.9 °F 29.7 in SSO 4.1 mph 6 mph 64% 0 in
16:09 61.2 °F 48.9 °F 29.7 in SSO 3.6 mph 6.2 mph 64% 0 in
16:14 61.2 °F 48.9 °F 29.7 in SSO 3.6 mph 6 mph 64.2% 0 in
16:19 61.2 °F 48.9 °F 29.7 in SSO 3.6 mph 6.2 mph 64.2% 0 in
16:24 61.2 °F 49.1 °F 29.7 in Sur 3.8 mph 6.2 mph 64.6% 0 in
16:29 61.2 °F 49.3 °F 29.7 in SE 4 mph 6 mph 65% 0 in
16:34 61.2 °F 49.3 °F 29.7 in SSE 3.5 mph 5 mph 65% 0 in
16:39 61.2 °F 49.3 °F 29.7 in Sur 2.9 mph 5.9 mph 65.1% 0 in
16:44 61 °F 49.5 °F 29.7 in Sur 3.4 mph 6.2 mph 66% 0 in
16:49 60.8 °F 49.5 °F 29.7 in SSE 4 mph 6.2 mph 66.2% 0 in
16:54 60.6 °F 49.3 °F 29.7 in SSE 4 mph 6.2 mph 66.4% 0 in
16:59 60.6 °F 49.6 °F 29.7 in SE 4 mph 6 mph 66.9% 0 in
17:04 60.4 °F 49.5 °F 29.7 in SE 4 mph 6.2 mph 67% 0 in
17:09 60.4 °F 49.8 °F 29.7 in ESE 4 mph 6 mph 68% 0 in
17:14 60.4 °F 49.8 °F 29.7 in ESE 3 mph 4 mph 68% 0 in
17:19 60.3 °F 49.8 °F 29.7 in SSE 2 mph 5.9 mph 68% 0 in
17:24 60.3 °F 50 °F 29.7 in SSE 2.5 mph 6 mph 69% 0 in
17:29 60.1 °F 49.8 °F 29.7 in Sur 3.1 mph 6 mph 69% 0 in
17:34 59.9 °F 49.6 °F 29.7 in SSE 3.4 mph 6 mph 69% 0 in
17:39 59.7 °F 49.8 °F 29.7 in SSE 3.6 mph 5.8 mph 69.7% 0 in
17:44 59.5 °F 49.8 °F 29.7 in SSE 3.4 mph 6 mph 70% 0 in
17:49 59.5 °F 49.8 °F 29.7 in SSE 3.1 mph 6 mph 70.3% 0 in
17:54 59.4 °F 50 °F 29.7 in SSE 3.5 mph 6 mph 71% 0 in
17:59 59.4 °F 50 °F 29.7 in SE 4 mph 6 mph 71% 0 in
18:04 59.4 °F 50.2 °F 29.7 in ESE 4 mph 6 mph 71.3% 0 in
18:09 59.2 °F 50.2 °F 29.7 in ESE 4 mph 6 mph 72% 0 in
18:14 59 °F 50 °F 29.7 in ESE 3.2 mph 5 mph 72% 0 in
18:19 58.6 °F 49.6 °F 29.7 in SSE 2.4 mph 5 mph 72% 0 in
18:24 58.5 °F 49.6 °F 29.8 in SSE 2.4 mph 5 mph 72% 0 in
18:29 58.5 °F 49.8 °F 29.8 in SSO 2.4 mph 4.6 mph 73% 0 in
18:34 58.5 °F 49.8 °F 29.8 in Oeste 2.4 mph 5 mph 73% 0 in
18:39 58.5 °F 50 °F 29.8 in ONO 2.4 mph 5 mph 73.5% 0 in
18:44 58.5 °F 50.2 °F 29.8 in Oeste 2.4 mph 5 mph 74% 0 in
18:49 58.5 °F 50.2 °F 29.8 in Oeste 2.4 mph 5 mph 74% 0 in
18:54 58.5 °F 50.2 °F 29.8 in Oeste 2.1 mph 3 mph 74% 0 in
18:59 58.5 °F 50.2 °F 29.8 in Oeste 1.8 mph 3 mph 74% 0 in
19:04 58.5 °F 50.2 °F 29.8 in Oeste 1.8 mph 4.7 mph 73.9% 0 in
19:09 58.5 °F 49.8 °F 29.8 in OSO 1.8 mph 5 mph 73% 0 in
19:14 58.6 °F 50 °F 29.8 in OSO 2.1 mph 5 mph 73% 0 in
19:19 58.6 °F 50 °F 29.8 in Sur 2.4 mph 6.9 mph 73% 0 in
19:24 58.6 °F 50.2 °F 29.8 in SSE 3 mph 7 mph 73.6% 0 in
19:29 58.3 °F 50.2 °F 29.8 in SSE 3.6 mph 8.1 mph 74.5% 0 in
19:34 57.9 °F 50.2 °F 29.8 in SSE 4.1 mph 8 mph 75.5% 0 in
19:39 57.7 °F 50.2 °F 29.8 in SSE 4.7 mph 8.1 mph 76% 0 in
19:44 57.6 °F 50 °F 29.8 in Sur 4.7 mph 8 mph 76% 0 in
19:49 57.6 °F 50 °F 29.8 in Sur 4.7 mph 8.1 mph 76% 0 in
19:54 57.7 °F 50 °F 29.8 in SSO 5 mph 9.7 mph 75.5% 0 in
19:59 57.7 °F 50 °F 29.8 in SSO 5.4 mph 10 mph 75% 0 in
20:04 57.9 °F 49.8 °F 29.8 in SSO 5.3 mph 8.1 mph 74.4% 0 in
20:09 58.3 °F 50 °F 29.8 in SSO 5.2 mph 8.1 mph 74% 0 in
20:14 58.3 °F 50 °F 29.8 in SO 4.9 mph 8.1 mph 74% 0 in
20:19 58.3 °F 50 °F 29.8 in SSO 4.7 mph 7.4 mph 74% 0 in
20:24 58.3 °F 50 °F 29.8 in SSO 4.3 mph 7 mph 74% 0 in
20:29 58.3 °F 50 °F 29.8 in SSO 4 mph 9.7 mph 74% 0 in
20:34 58.1 °F 50 °F 29.8 in SSO 4.3 mph 10 mph 74% 0 in
20:39 57.9 °F 50 °F 29.8 in SSO 4.7 mph 9.2 mph 74.8% 0 in
20:44 57.9 °F 50 °F 29.8 in SSO 5 mph 9 mph 75% 0 in
20:49 57.9 °F 50 °F 29.8 in SSO 5.2 mph 9.2 mph 75% 0 in
20:54 57.9 °F 49.8 °F 29.8 in Sur 5 mph 9 mph 74.5% 0 in
20:59 57.9 °F 49.6 °F 29.8 in Sur 4.7 mph 9.2 mph 74% 0 in
21:04 57.7 °F 49.6 °F 29.8 in Sur 5.1 mph 9 mph 74% 0 in
21:09 57.7 °F 49.6 °F 29.8 in SSO 5.4 mph 9 mph 74.4% 0 in
21:14 57.7 °F 49.8 °F 29.8 in Sur 5.7 mph 9.2 mph 75% 0 in
21:19 57.6 °F 49.8 °F 29.8 in Sur 5.9 mph 9.7 mph 75% 0 in
21:24 57.6 °F 49.3 °F 29.8 in SSO 6 mph 10 mph 74.1% 0 in
21:29 57.6 °F 49.1 °F 29.8 in SSO 6.2 mph 10 mph 73.4% 0 in
21:34 57.7 °F 49.1 °F 29.8 in SO 5.7 mph 8.5 mph 72.9% 0 in
21:39 57.7 °F 48.7 °F 29.9 in SSO 5.2 mph 9 mph 72% 0 in
21:44 57.7 °F 48.7 °F 29.9 in SSO 5 mph 7.4 mph 72% 0 in
21:49 57.7 °F 48.6 °F 29.9 in SSO 4.7 mph 10 mph 71.3% 0 in
21:54 57.7 °F 48.2 °F 29.9 in SSO 5 mph 10.4 mph 70.3% 0 in
21:59 57.9 °F 48.2 °F 29.9 in SO 5.2 mph 10 mph 70% 0 in
22:04 57.9 °F 47.8 °F 29.9 in SSO 5.2 mph 8 mph 69.2% 0 in
22:09 57.9 °F 47.7 °F 29.9 in SO 5.2 mph 8.1 mph 68.6% 0 in
22:14 58.1 °F 47.5 °F 29.9 in SSO 4.7 mph 8 mph 67.8% 0 in
22:19 58.3 °F 47.3 °F 29.9 in SSO 4.3 mph 8.7 mph 67% 0 in
22:24 58.5 °F 47.1 °F 29.9 in SSO 4.7 mph 9.2 mph 66.2% 0 in
22:29 58.3 °F 47.1 °F 29.9 in Sur 5.2 mph 9 mph 66% 0 in
22:34 58.5 °F 47.1 °F 29.9 in SSO 5.2 mph 8 mph 66% 0 in
22:39 58.5 °F 47.1 °F 29.9 in SSO 5.2 mph 7 mph 66% 0 in
22:44 58.3 °F 46.9 °F 29.9 in SSO 5 mph 9.2 mph 66% 0 in
22:49 58.3 °F 46.9 °F 29.9 in SSO 4.7 mph 9 mph 66% 0 in
22:54 58.3 °F 46.6 °F 29.9 in SSO 5.3 mph 9.2 mph 65.1% 0 in
22:59 58.5 °F 46.6 °F 29.9 in SO 5.9 mph 9 mph 65% 0 in
23:04 58.3 °F 46.6 °F 29.9 in SO 5.2 mph 7 mph 65% 0 in
23:09 58.3 °F 46.6 °F 29.9 in SO 4.7 mph 7 mph 65% 0 in
23:14 58.3 °F 46.2 °F 29.9 in OSO 4.5 mph 8.1 mph 64.1% 0 in
23:19 58.3 °F 45.9 °F 29.9 in OSO 4.3 mph 10.2 mph 63.3% 0 in
23:24 58.5 °F 45.7 °F 29.9 in OSO 4.8 mph 10.4 mph 62.4% 0 in
23:29 58.5 °F 45.5 °F 29.9 in OSO 5.4 mph 10 mph 62% 0 in
23:34 58.5 °F 45.3 °F 29.9 in OSO 5 mph 9 mph 61.5% 0 in
23:39 58.5 °F 45.1 °F 29.9 in OSO 4.7 mph 11.5 mph 61% 0 in
23:44 58.6 °F 45.1 °F 29.9 in OSO 5 mph 13.7 mph 60.8% 0 in
23:49 58.6 °F 44.8 °F 29.9 in OSO 5.4 mph 14 mph 60% 0 in
23:54 58.6 °F 44.8 °F 29.9 in Oeste 5.9 mph 14 mph 60% 0 in
23:59 58.6 °F 44.8 °F 29.9 in OSO 6.4 mph 14.5 mph 59.9% 0 in
Murcia-Puente Tocinos, España
Compliments of Weather Underground - 2.75 mb

La estación de MeteoMurcia.com, publica sus datos en los siguientes proyectos:

Weather Underground PWS IMURCIAP2 Meteoclimatic www.awekas.at

W3Counter
Web Analytics